PROFILE

 METAR AND TAF INFORMATION
ADDS - METARS form results

(1905 UTC 10 April 2021)
http://aviationweather.gov/metar/data/
 
GABS 101830Z 10005KT CAVOK 39/M01 Q1007 NOSIG
TAF GABS 101700Z 1018/1124 08008KT CAVOK 

 AIRPORT MAP

 RUNWAY INFORMATION
Runway 06 Runway length 8879 ft Runway width 148 ft
Runway elevation 1187 ft Runway displaced threshold 0 ft Runway heading 57
Runway 24 Runway length 8879 ft Runway width 148 ft
Runway elevation 1244 ft Runway displaced threshold 0 ft Runway heading 237

 AIRPORT FREQUENCIES
Type A/G Name A/G Frequency 667.3 MHZ
Type ACC Name ACC Frequency 119.1 MHZ
Type TWR Name TWR Frequency 118.3 MHZ

 AIRPORT NEAR NAVIGATION AIDS
Type VOR-DME Name Bamako/Senou Frequency 113700 KHZ
Type NDB Name Bamako/Senou Frequency 301 KHZ